• Join FlightAware (Why Join?)
  • Login
  • US Flag 
Trick or treat! (Boo!!) 
04:27AM EDT


 

Airport Tracker/Info


-or-


 

Live Flight TrackerFlight Track Log ✈ SWA962 ✈ 18-Jun-2013 ✈ KPHX - KSAT

Flight Track Log - Related Links

Times and Time Zones

All times are in EDT time to prevent confusion due to time zone crossing. See the SWA962 flight status page for this flight to view local times or setup timezone preferences in your user account.

Time Position Orientation Groundspeed Altitude Reporting Facility
EDT Latitude Longitude Course Direction KTS MPH feet Rate Location/Type
12:42PM 33.4333 -111.9833 90° East 167 192 2,300  Level Phoenix TRACON
12:44PM 33.4333 -111.8667 90° East 221 254 4,900 1,740 Climbing Phoenix TRACON
12:44PM 33.4167 -111.8000 107° East 276 318 6,700 2,700 Climbing Phoenix TRACON
12:46PM 33.3833 -111.7000 112° Southeast 285 328 10,300 2,520 Climbing Phoenix TRACON
12:48PM 33.3189 -111.4614 108° East 366 421 15,400 2,340 Climbing Albuquerque Center
12:49PM 33.2869 -111.3394 107° East 384 442 18,200 2,700 Climbing Albuquerque Center
12:50PM 33.2472 -111.1883 107° East 402 463 21,000 2,340 Climbing Albuquerque Center
12:51PM 33.2114 -111.0550 108° East 423 487 23,100 1,920 Climbing Albuquerque Center
12:52PM 33.1736 -110.9150 108° East 439 505 25,000 1,800 Climbing Albuquerque Center
12:53PM 33.1350 -110.7683 107° East 458 527 26,900 1,860 Climbing Albuquerque Center
12:54PM 33.0889 -110.6039 108° East 474 545 28,900 1,740 Climbing Albuquerque Center
12:55PM 33.0469 -110.4506 108° East 488 562 30,500 1,500 Climbing Albuquerque Center
12:56PM 33.0044 -110.2950 108° East 497 572 32,000 1,740 Climbing Albuquerque Center
12:57PM 32.9603 -110.1386 109° East 502 578 34,100 1,920 Climbing Albuquerque Center
12:58PM 32.9069 -109.9547 109° East 498 573 36,000 1,560 Climbing Albuquerque Center
12:59PM 32.8633 -109.8036 109° East 492 566 37,300 1,140 Climbing Albuquerque Center
01:00PM 32.8217 -109.6517 108° East 490 564 38,400 780 Climbing Albuquerque Center
01:01PM 32.7794 -109.5017 108° East 487 560 39,000 240 Climbing Albuquerque Center
01:02PM 32.7369 -109.3531 109° East 485 558 39,000  Level Albuquerque Center
01:03PM 32.6861 -109.1786 109° East 479 551 39,000  Level Albuquerque Center
01:04PM 32.6442 -109.0306 109° East 480 552 39,000  Level Albuquerque Center
01:05PM 32.6019 -108.8847 109° East 478 550 39,000  Level Albuquerque Center
01:06PM 32.5603 -108.7397 109° East 475 547 39,000  Level Albuquerque Center
01:07PM 32.5100 -108.5653 109° East 473 544 39,000  Level Albuquerque Center
01:08PM 32.4667 -108.4200 109° East 474 545 39,000  Level Albuquerque Center
01:10PM 32.4197 -108.2611 109° East 476 548 39,000  Level Albuquerque Center
01:11PM 32.3756 -108.1133 109° East 478 550 39,000  Level Albuquerque Center
01:12PM 32.3322 -107.9650 109° East 480 552 39,000  Level Albuquerque Center
01:13PM 32.2864 -107.8158 110° East 484 557 39,000  Level Albuquerque Center
01:14PM 32.2428 -107.6672 109° East 484 557 39,000  Level Albuquerque Center
01:15PM 32.1983 -107.5183 109° East 484 557 39,000  Level Albuquerque Center
01:16PM 32.1447 -107.3408 110° East 485 558 39,000  Level Albuquerque Center
01:17PM 32.0997 -107.1931 110° East 485 558 39,000  Level Albuquerque Center
01:18PM 32.0553 -107.0461 110° East 483 556 39,000  Level Albuquerque Center
01:19PM 32.0100 -106.8994 110° East 482 555 39,000  Level Albuquerque Center
01:20PM 31.9556 -106.7256 110° East 477 549 39,000  Level Albuquerque Center
01:21PM 31.9103 -106.5800 110° East 476 548 39,000  Level Albuquerque Center
01:22PM 31.8694 -106.4478 110° East 482 555 39,000  Level Albuquerque Center
01:23PM 31.8139 -106.2731 110° East 478 550 39,000  Level Albuquerque Center
01:24PM 31.7764 -106.1231 106° East 475 547 39,000  Level Albuquerque Center
01:25PM 31.7383 -105.9750 107° East 474 545 39,000  Level Albuquerque Center
01:26PM 31.7014 -105.8261 106° East 474 545 39,000  Level Albuquerque Center
01:27PM 31.6644 -105.6767 106° East 476 548 39,000  Level Albuquerque Center
01:28PM 31.6275 -105.5261 106° East 479 551 39,000  Level Albuquerque Center
01:29PM 31.5892 -105.3769 107° East 477 549 39,000  Level Albuquerque Center
01:30PM 31.5514 -105.2272 106° East 477 549 39,000  Level Albuquerque Center
01:31PM 31.5050 -105.0469 107° East 479 551 39,000  Level Albuquerque Center
01:32PM 31.4661 -104.8967 107° East 480 552 39,000  Level Albuquerque Center
01:33PM 31.4272 -104.7453 107° East 482 555 39,000  Level Albuquerque Center
01:34PM 31.3900 -104.5975 106° East 476 548 39,000  Level Albuquerque Center
01:35PM 31.3494 -104.4472 108° East 480 552 39,000  Level Albuquerque Center
01:36PM 31.3114 -104.2978 107° East 479 551 39,000  Level Albuquerque Center
01:37PM 31.2725 -104.1517 107° East 474 545 39,000  Level Albuquerque Center
01:38PM 31.2325 -104.0039 108° East 476 548 39,000  Level Albuquerque Center
01:39PM 31.1925 -103.8553 107° East 480 552 39,000  Level Albuquerque Center
01:40PM 31.1431 -103.6742 108° East 477 549 39,000  Level Albuquerque Center
01:41PM 31.1028 -103.5283 108° East 475 547 39,000  Level Albuquerque Center
01:42PM 31.0617 -103.3825 108° East 475 547 39,000  Level Albuquerque Center
01:43PM 31.0214 -103.2361 108° East 476 548 39,000  Level Albuquerque Center
01:45PM 30.9828 -103.0931 107° East 470 541 39,000  Level Albuquerque Center
01:46PM 30.9436 -102.9494 108° East 467 537 39,000  Level Albuquerque Center
01:47PM 30.8986 -102.7725 106° East 475 547 39,000  Level Albuquerque Center
01:48PM 30.8614 -102.6272 107° East 474 545 39,000  Level Albuquerque Center
01:49PM 30.8233 -102.4850 107° East 469 540 39,000  Level Albuquerque Center
01:50PM 30.7931 -102.3711 107° East 469 540 39,000  Level Houston Center
01:51PM 30.7569 -102.2297 107° East 465 535 39,000  Level Houston Center
01:52PM 30.7125 -102.0603 107° East 463 533 39,000  Level Houston Center
01:53PM 30.6747 -101.9189 107° East 462 532 39,000  Level Houston Center
01:54PM 30.6367 -101.7761 107° East 464 534 39,000  Level Houston Center
01:55PM 30.5992 -101.6339 107° East 464 534 39,000  Level Houston Center
01:56PM 30.5600 -101.4939 108° East 462 532 39,000  Level Houston Center
01:57PM 30.5133 -101.3219 107° East 464 534 39,000  Level Houston Center
01:58PM 30.4733 -101.1789 108° East 468 539 39,000  Level Houston Center
01:59PM 30.4358 -101.0336 107° East 470 541 39,000 -540 Level Houston Center
02:00PM 30.3964 -100.8908 108° East 467 537 38,000 -1,020 Descending Houston Center
02:01PM 30.3572 -100.7481 108° East 467 537 37,000 -960 Descending Houston Center
02:02PM 30.3189 -100.6050 107° East 467 537 36,100 -1,440 Descending Houston Center
02:03PM 30.2678 -100.4336 109° East 469 540 34,100 -2,400 Descending Houston Center
02:04PM 30.2278 -100.2892 108° East 472 543 31,200 -2,520 Descending Houston Center
02:05PM 30.1875 -100.1458 108° East 472 543 28,900 -2,160 Descending Houston Center
02:06PM 30.1525 -100.0219 108° East 460 529 26,800 -2,340 Descending Houston Center
02:07PM 30.1078 -99.8583 107° East 445 512 24,100 -2,340 Descending Houston Center
02:08PM 30.0717 -99.7331 108° East 420 483 22,000 -2,040 Descending Houston Center
02:09PM 30.0358 -99.6061 108° East 417 480 19,900 -2,040 Descending Houston Center
02:10PM 30.0000 -99.4861 109° East 400 460 17,900 -2,040 Descending Houston Center
02:11PM 29.9639 -99.3567 108° East 382 440 15,800 -2,160 Descending Houston Center
02:12PM 29.9278 -99.2347 109° East 373 429 13,500 -2,160 Descending Houston Center
02:13PM 29.9047 -99.1694 112° Southeast 362 417 12,300 -1,860 Descending Houston Center
02:14PM 29.8636 -99.0586 113° Southeast 352 405 10,400 -1,260 Descending Houston Center
02:15PM 29.8308 -98.9733 114° Southeast 313 360 9,800 -1,260 Descending Houston Center
02:16PM 29.7919 -98.8647 112° Southeast 293 337 7,800 -1,500 Descending Houston Center
02:17PM 29.7672 -98.8003 114° Southeast 290 334 6,800 -1,080 Descending Houston Center
02:17PM 29.7525 -98.7567 111° Southeast 272 313 6,400 -1,020 Descending Houston Center
02:18PM 29.7100 -98.7017 132° Southeast 229 264 5,300 -1,140 Descending Houston Center
02:19PM 29.6650 -98.6433 132° Southeast 226 260 4,100 -1,020 Descending Houston Center
02:20PM 29.6289 -98.5961 131° Southeast 205 236 3,300 -900 Descending Houston Center
02:22PM 29.5942 -98.5508 131° Southeast 180 207 2,300 -840 Descending Houston Center
02:23PM 29.5678 -98.5164 131° Southeast 150 173 1,600 -780 Descending Houston Center
02:24PM 29.5408 -98.4811 131° Southeast 141 162 800 -780 Descending Houston Center
02:26PM 29.5333 -98.4667 120° Southeast  Level FlightAware Approximate
02:33PM 29.5340 -98.4691 120° Southeast  Level Estimated